createdAt,value
2023-04-19T00:00:08.336Z,18.17
2023-04-19T00:02:36.286Z,17.73
2023-04-19T00:05:03.812Z,18.00
2023-04-19T00:07:30.896Z,17.17
2023-04-19T00:09:57.756Z,17.20
2023-04-19T00:12:24.961Z,18.15
2023-04-19T00:14:51.867Z,17.52
2023-04-19T00:17:19.473Z,17.88
2023-04-19T00:19:46.413Z,18.10
2023-04-19T00:22:13.321Z,17.58
2023-04-19T00:24:40.350Z,18.73
2023-04-19T00:27:07.295Z,18.55
2023-04-19T00:29:34.322Z,18.55
2023-04-19T00:32:01.579Z,18.80
2023-04-19T00:34:28.401Z,18.85
2023-04-19T00:36:56.976Z,17.92
2023-04-19T00:39:24.154Z,19.55
2023-04-19T00:41:51.081Z,20.00
2023-04-19T00:44:19.090Z,19.95
2023-04-19T00:46:46.240Z,18.63
2023-04-19T00:49:13.274Z,19.08
2023-04-19T00:51:40.382Z,19.70
2023-04-19T00:54:08.929Z,20.35
2023-04-19T00:56:36.049Z,19.02
2023-04-19T00:59:02.977Z,18.63
2023-04-19T01:01:31.422Z,19.95
2023-04-19T01:03:58.759Z,19.23
2023-04-19T01:06:27.866Z,19.48
2023-04-19T01:08:54.755Z,20.58
2023-04-19T01:11:26.356Z,20.42
2023-04-19T01:13:53.418Z,21.23
2023-04-19T01:16:20.522Z,21.55
2023-04-19T01:18:49.583Z,20.50
2023-04-19T01:21:17.299Z,20.60
2023-04-19T01:23:44.635Z,21.58
2023-04-19T01:26:11.487Z,22.77
2023-04-19T01:28:38.555Z,22.75
2023-04-19T01:31:05.520Z,22.10
2023-04-19T01:33:32.582Z,21.95
2023-04-19T01:36:00.260Z,22.48
2023-04-19T01:38:27.291Z,23.70
2023-04-19T01:40:56.767Z,21.98
2023-04-19T01:43:24.858Z,22.98
2023-04-19T01:45:51.763Z,22.55
2023-04-19T01:48:19.813Z,23.88
2023-04-19T01:50:46.649Z,23.83
2023-04-19T01:53:13.553Z,22.35
2023-04-19T01:55:40.501Z,23.23
2023-04-19T01:58:07.422Z,23.42
2023-04-19T02:00:34.622Z,23.45
2023-04-19T02:03:04.680Z,22.77
2023-04-19T02:05:31.768Z,23.02
2023-04-19T02:08:01.405Z,23.70
2023-04-19T02:10:31.012Z,22.98
2023-04-19T02:12:58.132Z,23.02
2023-04-19T02:15:24.996Z,23.90
2023-04-19T02:17:51.953Z,24.23
2023-04-19T02:20:19.488Z,23.55
2023-04-19T02:22:47.934Z,23.90
2023-04-19T02:25:16.560Z,24.65
2023-04-19T02:27:43.425Z,24.60
2023-04-19T02:30:11.111Z,24.95
2023-04-19T02:32:38.300Z,25.30
2023-04-19T02:35:07.006Z,25.23
2023-04-19T02:37:33.988Z,24.70
2023-04-19T02:40:00.886Z,23.77
2023-04-19T02:42:29.346Z,25.42
2023-04-19T02:44:56.399Z,26.33
2023-04-19T02:47:24.613Z,25.35
2023-04-19T02:49:51.643Z,24.80
2023-04-19T02:52:19.887Z,25.42
2023-04-19T02:54:46.738Z,26.35
2023-04-19T02:57:13.722Z,25.17
2023-04-19T02:59:43.085Z,26.67
2023-04-19T03:02:10.247Z,25.83
2023-04-19T03:04:37.736Z,26.10
2023-04-19T03:07:04.798Z,25.75
2023-04-19T03:09:31.759Z,27.27
2023-04-19T03:11:58.693Z,24.88
2023-04-19T03:14:25.554Z,26.67
2023-04-19T03:16:52.929Z,26.73
2023-04-19T03:19:19.846Z,27.02
2023-04-19T03:21:51.196Z,26.52
2023-04-19T03:24:20.349Z,26.92
2023-04-19T03:26:51.478Z,26.95
2023-04-19T03:29:23.469Z,26.20
2023-04-19T03:32:12.406Z,27.48
2023-04-19T03:34:39.312Z,27.83
2023-04-19T03:37:06.148Z,27.75
2023-04-19T03:39:33.545Z,27.20
2023-04-19T03:42:04.164Z,26.38
2023-04-19T03:44:44.962Z,28.70
2023-04-19T03:47:12.023Z,27.88
2023-04-19T03:49:43.616Z,28.45
2023-04-19T03:52:10.887Z,28.27
2023-04-19T03:54:37.767Z,27.52
2023-04-19T03:57:08.825Z,28.40
2023-04-19T03:59:39.434Z,28.52
2023-04-19T04:02:07.041Z,28.70
2023-04-19T04:04:34.513Z,28.67
2023-04-19T04:07:02.445Z,27.85
2023-04-19T04:09:29.394Z,27.10
2023-04-19T04:11:56.339Z,26.90
2023-04-19T04:14:24.644Z,26.13
2023-04-19T04:16:51.818Z,27.95
2023-04-19T04:19:19.517Z,27.30
2023-04-19T04:21:46.715Z,28.13
2023-04-19T04:24:13.918Z,26.92
2023-04-19T04:26:51.540Z,26.40
2023-04-19T04:29:30.227Z,25.63
2023-04-19T04:32:00.242Z,26.58
2023-04-19T04:34:33.873Z,27.80
2023-04-19T04:37:08.886Z,27.33
2023-04-19T04:39:39.755Z,27.98
2023-04-19T04:42:09.121Z,27.40
2023-04-19T04:44:37.162Z,27.80
2023-04-19T04:47:04.212Z,28.92
2023-04-19T04:49:37.573Z,28.20
2023-04-19T04:52:04.850Z,29.95
2023-04-19T04:54:36.469Z,29.60
2023-04-19T04:57:04.903Z,28.08
2023-04-19T04:59:31.757Z,27.00
2023-04-19T05:01:59.110Z,26.80
2023-04-19T05:04:26.176Z,26.98
2023-04-19T05:06:53.121Z,27.55
2023-04-19T05:09:24.719Z,25.98
2023-04-19T05:11:51.908Z,27.63
2023-04-19T05:14:19.135Z,25.73
2023-04-19T05:16:46.321Z,26.83
2023-04-19T05:19:13.464Z,26.02
2023-04-19T05:21:46.577Z,26.38
2023-04-19T05:24:15.452Z,26.20
2023-04-19T05:26:43.111Z,26.05
2023-04-19T05:29:11.767Z,25.30
2023-04-19T05:31:46.471Z,24.23
2023-04-19T05:34:22.303Z,24.42
2023-04-19T05:36:50.094Z,24.63
2023-04-19T05:39:17.449Z,24.83
2023-04-19T05:41:44.565Z,23.75
2023-04-19T05:44:11.746Z,24.80
2023-04-19T05:46:38.782Z,23.55
2023-04-19T05:49:08.284Z,23.20
2023-04-19T05:51:55.560Z,23.13
2023-04-19T05:54:36.688Z,23.70
2023-04-19T05:57:05.357Z,21.90
2023-04-19T05:59:32.309Z,23.15
2023-04-19T06:02:16.010Z,22.08
2023-04-19T06:04:43.431Z,22.30
2023-04-19T06:07:26.712Z,21.40
2023-04-19T06:09:58.477Z,21.02
2023-04-19T06:12:25.511Z,21.08
2023-04-19T06:14:53.362Z,21.48
2023-04-19T06:17:24.630Z,19.75
2023-04-19T06:19:52.443Z,20.90
2023-04-19T06:22:19.326Z,19.88
2023-04-19T06:24:47.050Z,20.48
2023-04-19T06:27:15.626Z,18.77
2023-04-19T06:29:42.989Z,19.13
2023-04-19T06:32:10.067Z,17.77
2023-04-19T06:34:37.050Z,17.55
2023-04-19T06:37:04.418Z,18.42
2023-04-19T06:39:31.409Z,17.48
2023-04-19T06:41:58.231Z,19.02
2023-04-19T06:44:25.167Z,17.15
2023-04-19T06:46:52.012Z,17.48
2023-04-19T06:49:18.967Z,17.45
2023-04-19T06:51:45.891Z,16.92
2023-04-19T06:54:12.838Z,17.35
2023-04-19T06:56:50.183Z,17.40
2023-04-19T06:59:19.957Z,16.48
2023-04-19T07:01:48.222Z,17.27
2023-04-19T07:04:15.967Z,16.80
2023-04-19T07:06:43.311Z,16.83
2023-04-19T07:09:10.554Z,16.85
2023-04-19T07:11:37.546Z,16.27
2023-04-19T07:14:04.426Z,17.50
2023-04-19T07:16:31.457Z,15.90
2023-04-19T07:18:58.644Z,16.08
2023-04-19T07:21:28.718Z,15.30
2023-04-19T07:23:55.717Z,15.77
2023-04-19T07:26:22.563Z,15.68
2023-04-19T07:28:50.361Z,16.25
2023-04-19T07:31:18.533Z,15.38
2023-04-19T07:33:45.741Z,14.38
2023-04-19T07:36:12.774Z,15.05
2023-04-19T07:38:40.093Z,15.40
2023-04-19T07:41:07.007Z,14.00
2023-04-19T07:43:33.971Z,14.98
2023-04-19T07:46:01.334Z,14.32
2023-04-19T07:48:28.310Z,14.82
2023-04-19T07:50:55.349Z,14.95
2023-04-19T07:53:22.339Z,14.98
2023-04-19T07:55:49.198Z,15.45
2023-04-19T07:58:16.134Z,14.30
2023-04-19T08:00:43.076Z,13.93
2023-04-19T08:03:10.252Z,14.40
2023-04-19T08:05:37.287Z,14.73
2023-04-19T08:08:04.360Z,13.93
2023-04-19T08:10:31.525Z,13.52
2023-04-19T08:13:05.905Z,13.27
2023-04-19T08:18:05.279Z,13.02
2023-04-19T08:20:32.701Z,12.52
2023-04-19T08:23:07.236Z,11.80
2023-04-19T08:25:41.435Z,11.75
2023-04-19T08:28:08.393Z,13.32
2023-04-19T08:30:35.541Z,11.75
2023-04-19T08:33:02.667Z,10.85
2023-04-19T08:35:29.973Z,10.60
2023-04-19T08:37:56.998Z,11.80
2023-04-19T08:40:24.586Z,11.48
2023-04-19T08:42:51.735Z,11.30
2023-04-19T08:48:00.511Z,11.07
2023-04-19T08:53:12.298Z,10.07
2023-04-19T08:58:30.726Z,10.23
2023-04-19T09:01:00.616Z,10.48
2023-04-19T09:03:27.941Z,9.82
2023-04-19T09:05:55.301Z,10.10
2023-04-19T09:08:28.239Z,10.25
2023-04-19T09:11:01.964Z,10.20
2023-04-19T09:13:30.289Z,10.10
2023-04-19T09:15:58.037Z,10.00
2023-04-19T09:18:25.151Z,9.20
2023-04-19T09:21:02.032Z,10.55
2023-04-19T09:23:29.064Z,9.05
2023-04-19T09:26:22.966Z,9.77
2023-04-19T09:28:58.134Z,10.07
2023-04-19T09:31:47.335Z,11.53
2023-04-19T09:34:16.111Z,10.93
2023-04-19T09:36:43.149Z,12.48
2023-04-19T09:39:11.196Z,11.13
2023-04-19T09:41:54.328Z,10.68
2023-04-19T09:45:01.764Z,10.55
2023-04-19T09:47:26.230Z,10.48
2023-04-19T09:50:21.922Z,9.90
2023-04-19T09:52:50.974Z,10.07
2023-04-19T09:57:49.270Z,10.45
2023-04-19T10:00:16.441Z,10.15
2023-04-19T10:02:45.266Z,10.68
2023-04-19T10:05:20.323Z,10.50
2023-04-19T10:07:49.898Z,11.13
2023-04-19T10:10:22.557Z,10.80
2023-04-19T10:15:26.859Z,11.32
2023-04-19T10:17:56.827Z,10.80
2023-04-19T10:20:30.600Z,10.88
2023-04-19T10:22:57.598Z,11.73
2023-04-19T10:25:30.942Z,11.48
2023-04-19T10:27:58.314Z,12.00
2023-04-19T10:30:29.128Z,11.38
2023-04-19T10:32:57.934Z,11.70
2023-04-19T10:35:26.341Z,11.85
2023-04-19T10:38:08.663Z,11.70
2023-04-19T10:40:56.618Z,11.63
2023-04-19T10:43:25.205Z,12.73
2023-04-19T10:45:52.443Z,12.45
2023-04-19T10:48:30.902Z,12.18
2023-04-19T10:50:58.435Z,11.30
2023-04-19T10:53:48.767Z,11.25
2023-04-19T10:56:17.711Z,11.63
2023-04-19T10:59:08.145Z,12.63
2023-04-19T11:01:40.435Z,11.25
2023-04-19T11:04:11.830Z,11.05
2023-04-19T11:07:01.608Z,10.88
2023-04-19T11:09:35.693Z,10.70
2023-04-19T11:12:05.378Z,11.05
2023-04-19T11:14:35.352Z,11.57
2023-04-19T11:17:13.735Z,10.77
2023-04-19T11:19:55.867Z,10.18
2023-04-19T11:22:42.914Z,9.90
2023-04-19T11:25:10.947Z,10.85
2023-04-19T11:27:38.957Z,10.43
2023-04-19T11:30:08.928Z,9.70
2023-04-19T11:32:37.032Z,9.65
2023-04-19T11:35:08.961Z,10.85
2023-04-19T11:37:37.292Z,9.63
2023-04-19T11:40:06.338Z,10.57
2023-04-19T11:42:34.207Z,9.77
2023-04-19T11:45:01.171Z,9.63
2023-04-19T11:47:28.380Z,10.32
2023-04-19T11:49:56.495Z,9.85
2023-04-19T11:52:25.613Z,10.55
2023-04-19T11:54:53.530Z,9.52
2023-04-19T11:57:32.856Z,9.43
2023-04-19T12:00:11.662Z,9.52
2023-04-19T12:02:44.203Z,9.40
2023-04-19T12:05:16.336Z,8.93
2023-04-19T12:08:07.993Z,8.70
2023-04-19T12:10:36.078Z,9.27
2023-04-19T12:13:18.149Z,9.00
2023-04-19T12:15:46.777Z,8.35
2023-04-19T12:18:14.206Z,8.23
2023-04-19T12:20:46.636Z,7.85
2023-04-19T12:23:15.654Z,7.97
2023-04-19T12:25:45.085Z,8.05
2023-04-19T12:28:13.221Z,7.68
2023-04-19T12:30:40.302Z,7.88
2023-04-19T12:33:08.145Z,7.30
2023-04-19T12:35:36.280Z,6.78
2023-04-19T12:38:03.502Z,6.13
2023-04-19T12:40:31.062Z,6.38
2023-04-19T12:42:58.209Z,5.32
2023-04-19T12:45:25.467Z,6.22
2023-04-19T12:47:52.524Z,5.85
2023-04-19T12:50:19.468Z,6.45
2023-04-19T12:52:46.325Z,5.47
2023-04-19T12:55:13.242Z,5.38
2023-04-19T12:57:40.179Z,5.93
2023-04-19T13:00:07.739Z,6.18
2023-04-19T13:02:35.394Z,5.30
2023-04-19T13:05:04.152Z,5.22
2023-04-19T13:07:31.622Z,5.47
2023-04-19T13:09:58.523Z,6.30
2023-04-19T13:12:25.602Z,5.00
2023-04-19T13:14:52.742Z,6.60
2023-04-19T13:17:20.709Z,5.20
2023-04-19T13:19:47.838Z,3.92
2023-04-19T13:22:15.610Z,4.30
2023-04-19T13:24:42.527Z,3.92
2023-04-19T13:27:09.934Z,3.90
2023-04-19T13:29:37.229Z,3.63
2023-04-19T13:32:07.545Z,4.40
2023-04-19T13:34:35.577Z,4.88
2023-04-19T13:37:02.423Z,4.03
2023-04-19T13:39:29.380Z,4.55
2023-04-19T13:41:56.709Z,3.40
2023-04-19T13:44:25.233Z,3.75
2023-04-19T13:46:52.224Z,4.50
2023-04-19T13:49:19.417Z,4.22
2023-04-19T13:51:50.773Z,3.60
2023-04-19T13:54:19.859Z,4.10
2023-04-19T13:56:49.779Z,3.85
2023-04-19T13:59:18.416Z,4.18
2023-04-19T14:01:45.281Z,4.85
2023-04-19T14:04:12.497Z,3.92
2023-04-19T14:06:39.573Z,3.70
2023-04-19T14:09:06.808Z,3.55
2023-04-19T14:11:33.939Z,4.40
2023-04-19T14:14:00.862Z,3.38
2023-04-19T14:16:27.745Z,3.55
2023-04-19T14:18:54.719Z,3.60
2023-04-19T14:21:21.576Z,3.40
2023-04-19T14:23:48.483Z,3.90
2023-04-19T14:26:15.617Z,3.60
2023-04-19T14:28:42.524Z,4.35
2023-04-19T14:31:09.426Z,3.88
2023-04-19T14:33:36.620Z,4.60
2023-04-19T14:36:04.623Z,4.30
2023-04-19T14:38:31.775Z,5.03
2023-04-19T14:40:58.737Z,4.88
2023-04-19T14:43:26.113Z,4.63
2023-04-19T14:45:53.229Z,5.07
2023-04-19T14:48:22.069Z,4.85
2023-04-19T14:50:49.378Z,5.40
2023-04-19T14:53:16.433Z,4.82
2023-04-19T14:55:43.386Z,5.00
2023-04-19T14:58:10.452Z,4.30
2023-04-19T15:00:37.365Z,4.18
2023-04-19T15:03:04.900Z,4.63
2023-04-19T15:05:34.988Z,3.60
2023-04-19T15:08:02.114Z,4.55
2023-04-19T15:10:29.004Z,3.95
2023-04-19T15:12:56.121Z,4.35
2023-04-19T15:15:22.964Z,4.63
2023-04-19T15:17:50.053Z,4.20
2023-04-19T15:20:17.069Z,4.75
2023-04-19T15:22:43.958Z,4.18
2023-04-19T15:25:11.083Z,3.90
2023-04-19T15:27:38.125Z,4.25
2023-04-19T15:30:06.328Z,3.83
2023-04-19T15:32:36.557Z,3.95
2023-04-19T15:35:03.803Z,4.03
2023-04-19T15:37:32.008Z,3.88
2023-04-19T15:39:58.984Z,4.60
2023-04-19T15:42:25.991Z,3.90
2023-04-19T15:44:52.914Z,4.28
2023-04-19T15:47:19.848Z,4.05
2023-04-19T15:49:48.079Z,3.88
2023-04-19T15:52:15.159Z,4.07
2023-04-19T15:54:42.100Z,4.03
2023-04-19T15:57:08.926Z,3.97
2023-04-19T15:59:35.857Z,4.25
2023-04-19T16:02:02.943Z,4.75
2023-04-19T16:04:31.343Z,4.50
2023-04-19T16:06:58.861Z,4.97
2023-04-19T16:09:26.694Z,4.03
2023-04-19T16:11:53.537Z,4.80
2023-04-19T16:14:20.565Z,4.18
2023-04-19T16:16:48.307Z,4.97
2023-04-19T16:19:15.517Z,3.95
2023-04-19T16:21:42.442Z,3.70
2023-04-19T16:24:09.462Z,3.58
2023-04-19T16:26:36.330Z,3.88
2023-04-19T16:29:03.247Z,3.88
2023-04-19T16:31:30.541Z,3.33
2023-04-19T16:33:57.488Z,3.45
2023-04-19T16:36:24.420Z,3.47
2023-04-19T16:38:51.503Z,3.17
2023-04-19T16:41:18.313Z,3.38
2023-04-19T16:43:45.254Z,3.47
2023-04-19T16:46:12.163Z,3.50
2023-04-19T16:48:39.118Z,3.50
2023-04-19T16:51:06.207Z,3.42
2023-04-19T16:53:33.176Z,3.25
2023-04-19T16:56:00.341Z,3.10
2023-04-19T16:58:27.366Z,3.63
2023-04-19T17:00:54.191Z,3.65
2023-04-19T17:03:21.844Z,3.80
2023-04-19T17:05:48.902Z,3.35
2023-04-19T17:08:16.027Z,3.67
2023-04-19T17:10:42.921Z,3.47
2023-04-19T17:13:09.820Z,3.78
2023-04-19T17:15:38.105Z,3.80
2023-04-19T17:18:05.373Z,3.67
2023-04-19T17:20:32.530Z,3.72
2023-04-19T17:22:59.648Z,5.93
2023-04-19T17:25:26.557Z,5.82
2023-04-19T17:27:53.422Z,5.15
2023-04-19T17:30:20.803Z,5.65
2023-04-19T17:32:47.859Z,5.32
2023-04-19T17:35:15.245Z,6.32
2023-04-19T17:37:43.627Z,5.25
2023-04-19T17:40:10.996Z,4.82
2023-04-19T17:42:37.952Z,4.57
2023-04-19T17:45:06.904Z,5.05
2023-04-19T17:47:33.902Z,5.13
2023-04-19T17:50:09.404Z,4.57
2023-04-19T17:52:36.316Z,5.22
2023-04-19T17:55:04.592Z,4.60
2023-04-19T17:57:33.801Z,5.55
2023-04-19T18:00:06.080Z,5.10
2023-04-19T18:02:36.257Z,5.43
2023-04-19T18:05:03.705Z,4.85
2023-04-19T18:07:30.592Z,5.00
2023-04-19T18:09:57.510Z,4.93
2023-04-19T18:12:24.399Z,5.10
2023-04-19T18:14:51.425Z,4.47
2023-04-19T18:17:18.319Z,5.15
2023-04-19T18:19:45.458Z,5.15
2023-04-19T18:22:12.341Z,5.60
2023-04-19T18:24:40.870Z,4.55
2023-04-19T18:27:07.820Z,4.80
2023-04-19T18:29:34.825Z,4.95
2023-04-19T18:32:01.773Z,5.43
2023-04-19T18:34:28.747Z,5.70
2023-04-19T18:37:00.184Z,5.97
2023-04-19T18:39:27.847Z,6.07
2023-04-19T18:41:56.337Z,6.75
2023-04-19T18:44:39.018Z,6.25
2023-04-19T18:47:11.552Z,7.10
2023-04-19T18:49:38.392Z,7.28
2023-04-19T18:52:05.576Z,6.55
2023-04-19T18:54:32.455Z,8.43
2023-04-19T18:57:21.757Z,7.53
2023-04-19T18:59:46.289Z,7.70
2023-04-19T19:02:13.189Z,7.60
2023-04-19T19:04:51.961Z,7.97
2023-04-19T19:07:35.665Z,8.77
2023-04-19T19:10:17.265Z,8.35
2023-04-19T19:12:47.855Z,7.50
2023-04-19T19:15:15.026Z,8.27
2023-04-19T19:17:43.256Z,7.68
2023-04-19T19:20:10.777Z,8.10
2023-04-19T19:22:37.726Z,8.40
2023-04-19T19:25:05.102Z,8.30
2023-04-19T19:27:32.136Z,7.85
2023-04-19T19:29:59.005Z,8.43
2023-04-19T19:32:26.001Z,8.10
2023-04-19T19:35:00.603Z,7.45
2023-04-19T19:37:28.627Z,8.63
2023-04-19T19:39:56.965Z,7.72
2023-04-19T19:42:24.670Z,7.90
2023-04-19T19:44:55.917Z,7.20
2023-04-19T19:47:24.338Z,6.70
2023-04-19T19:50:34.789Z,6.68
2023-04-19T19:52:38.745Z,6.85
2023-04-19T19:55:06.335Z,6.57
2023-04-19T20:00:23.013Z,7.15
2023-04-19T20:02:55.880Z,8.25
2023-04-19T20:05:24.183Z,6.55
2023-04-19T20:10:21.229Z,6.63
2023-04-19T20:12:48.120Z,6.50
2023-04-19T20:15:15.040Z,7.13
2023-04-19T20:17:42.016Z,7.00
2023-04-19T20:20:11.133Z,6.53
2023-04-19T20:22:38.435Z,7.18
2023-04-19T20:25:05.814Z,6.80
2023-04-19T20:27:33.325Z,6.80
2023-04-19T20:30:00.881Z,7.68
2023-04-19T20:32:27.876Z,7.72
2023-04-19T20:34:55.000Z,7.70
2023-04-19T20:37:22.536Z,9.02
2023-04-19T20:39:49.527Z,7.10
2023-04-19T20:42:16.819Z,7.30
2023-04-19T20:44:43.740Z,7.35
2023-04-19T20:47:12.854Z,7.93
2023-04-19T20:49:40.395Z,7.95
2023-04-19T20:52:07.288Z,8.45
2023-04-19T20:54:36.503Z,6.80
2023-04-19T20:57:04.699Z,7.93
2023-04-19T20:59:31.855Z,7.88
2023-04-19T21:01:59.911Z,7.75
2023-04-19T21:04:27.081Z,7.97
2023-04-19T21:06:54.197Z,7.43
2023-04-19T21:09:21.494Z,8.40
2023-04-19T21:11:48.420Z,7.60
2023-04-19T21:14:15.433Z,7.95
2023-04-19T21:16:42.258Z,7.50
2023-04-19T21:19:09.210Z,7.57
2023-04-19T21:21:36.026Z,7.85
2023-04-19T21:24:02.949Z,7.43
2023-04-19T21:26:29.850Z,6.60
2023-04-19T21:28:56.742Z,7.47
2023-04-19T21:31:23.624Z,7.18
2023-04-19T21:33:50.652Z,6.88
2023-04-19T21:36:17.548Z,6.70
2023-04-19T21:38:44.472Z,7.25
2023-04-19T21:41:11.390Z,6.82
2023-04-19T21:43:38.322Z,6.35
2023-04-19T21:46:05.378Z,5.90
2023-04-19T21:48:32.500Z,7.85
2023-04-19T21:51:01.164Z,6.80
2023-04-19T21:53:28.213Z,6.68
2023-04-19T21:55:55.271Z,6.93
2023-04-19T21:58:22.228Z,6.07
2023-04-19T22:00:49.371Z,6.30
2023-04-19T22:03:16.544Z,6.13
2023-04-19T22:05:46.151Z,5.00
2023-04-19T22:08:13.184Z,5.90
2023-04-19T22:10:41.101Z,5.18
2023-04-19T22:13:08.742Z,5.57
2023-04-19T22:15:36.492Z,5.20
2023-04-19T22:18:04.143Z,5.13
2023-04-19T22:20:33.756Z,5.35
2023-04-19T22:23:00.864Z,5.13
2023-04-19T22:25:28.044Z,5.30
2023-04-19T22:27:55.202Z,5.82
2023-04-19T22:30:22.084Z,5.50
2023-04-19T22:32:49.044Z,4.43
2023-04-19T22:35:16.036Z,4.60
2023-04-19T22:37:43.066Z,5.15
2023-04-19T22:40:10.477Z,5.13
2023-04-19T22:42:37.374Z,4.90
2023-04-19T22:45:04.646Z,5.03
2023-04-19T22:47:33.353Z,4.88
2023-04-19T22:50:00.298Z,4.97
2023-04-19T22:52:27.785Z,5.10
2023-04-19T22:54:54.793Z,5.20
2023-04-19T22:57:21.752Z,4.65
2023-04-19T22:59:48.904Z,4.00
2023-04-19T23:02:16.010Z,4.05
2023-04-19T23:04:44.817Z,4.00
2023-04-19T23:07:11.881Z,4.15
2023-04-19T23:09:39.346Z,4.05
2023-04-19T23:12:07.001Z,4.15
2023-04-19T23:14:34.003Z,4.15
2023-04-19T23:17:02.759Z,4.38
2023-04-19T23:19:30.467Z,3.92
2023-04-19T23:21:57.444Z,4.10
2023-04-19T23:24:24.599Z,3.88
2023-04-19T23:26:52.138Z,4.57
2023-04-19T23:29:19.328Z,4.70
2023-04-19T23:31:46.448Z,4.88
2023-04-19T23:34:14.142Z,4.55
2023-04-19T23:36:41.191Z,4.18
2023-04-19T23:39:08.100Z,4.03
2023-04-19T23:41:35.054Z,3.85
2023-04-19T23:44:01.927Z,4.47
2023-04-19T23:46:28.916Z,3.70
2023-04-19T23:48:55.946Z,3.83
2023-04-19T23:51:22.882Z,3.92
2023-04-19T23:53:49.790Z,3.60
2023-04-19T23:56:16.754Z,4.10
2023-04-19T23:58:43.587Z,3.80
